ADDS TAF Data INFO
IDs: Format: Raw Decoded Include METARs

Data at: 1513 UTC 16 Jan 2018

KABQ 161452Z 07011KT 10SM FEW025 OVC028 M04/M10 A3047 RMK AO2 SLP342 MTNS OBSC NE AND SE SHSN DSNT NE AND SE T10391100 53010

KABQ 161502Z 1615/1712 09011KT P6SM SCT025 OVC035
  TEMPO 1615/1618 BKN025
  FM161800 12006KT P6SM SCT040 SCT060
  FM171000 36005KT P6SM SKC